Tiempo atmosférico en la estación meteorológica de Valverde del Fresno, Cáceres (498 m.)



Fecha
DESCASC
Temp. máxima en grados centígrados (hora)
DESCASC
Temp. mínima en grados centígrados (hora)
DESCASC
Temp. media en grados centígrados
DESCASC
Racha de viento máxima en m/sg (hora)
DESCASC
Velocidad máxima media en intervalos de 10 minutos(hora)
DESCASC
Precipitaciones diarias en mm
DESCASC
Precipitaciones de 00:00 a 06:00 en mm
DESCASC
Precipitaciones de 06:00 a 12:00 en mm
DESCASC
Precipitaciones de 12:00 a 18:00 en mm
DESCASC
Precipitaciones de 18:00 a 24:00 en mm
DESCASC
18-08-2019 32.4 (16:20) 19.7 (08:10) 26.1 10.28 (18:10) 5.83 (18:10) 0 0 0 0 0
17-08-2019 37 (18:00) 20.1 (07:50) 28.6 13.33 (01:10) 5.83 (01:10) 0 0 0 0 0
16-08-2019 37.2 (17:30) 23.3 (07:50) 30.3 13.89 (00:30) 8.33 (00:40) 0 0 0 0 0
15-08-2019 36.2 (17:20) 22.6 (00:00) 29.4 15.28 (08:50) 9.44 (09:00) 0 0 0 0 0
14-08-2019 35 (17:30) 18.1 (00:00) 26.6 12.22 (22:50) 6.94 (23:30) 0 0 0 0 0
13-08-2019 31.5 (17:30) 16.5 (00:00) 24 12.22 (02:20) 5.28 (12:00) 0 0 0 0 0
12-08-2019 27.2 (17:40) 14.5 (00:00) 20.9 14.44 (11:50) 8.33 (12:10) 0 0 0 0 0
11-08-2019 25.3 (15:50) 15.5 (00:00) 20.4 12.22 (01:20) 6.94 (07:50) 0.2 0.2 0 0 0
10-08-2019 29.5 (17:20) 14 (00:00) 21.8 13.06 (23:10) 6.94 (23:20) 0 0 0 0 0
09-08-2019 23.2 (00:00) 17.5 (00:00) 20.4 6.94 (10:10) 3.89 (10:10) 4 0 3 1 0
08-08-2019 29.2 (18:20) 20 (00:00) 24.6 10.28 (17:10) 5.83 (18:10) 0 0 0 0 0
07-08-2019 26.8 (19:10) 19.8 (00:00) 23.3 6.39 (01:00) 3.89 (01:00) 0 0 0 0 0
06-08-2019 33.4 (16:40) 20.4 (00:00) 26.9 10.28 (06:40) 6.11 (06:40) 0 0 0 0 0
05-08-2019 35.2 (17:30) 16.7 (00:00) 26 9.44 (22:30) 5.28 (22:20) 0 0 0 0 0
04-08-2019 34.7 (16:40) 21.7 (00:00) 28.2 13.61 (15:20) 5.28 (05:00) 0 0 0 0 0
03-08-2019 35.4 (18:40) 22.3 (00:00) 28.9 11.11 (23:40) 6.39 (23:10) 0 0 0 0 0
02-08-2019 35.2 (18:10) 20.1 (00:00) 27.7 9.72 (23:59) 5.28 (23:50) 0 0 0 0 0
01-08-2019 34.4 (17:00) 21.7 (00:00) 28.1 11.39 (02:20) 5.83 (02:20) 0 0 0 0 0
31-07-2019 32.5 (16:00) 18.7 (00:00) 25.6 14.17 (02:40) 7.5 (03:10) 0 0 0 0 0
30-07-2019 29.1 (17:40) 14 (00:00) 21.6 17.78 (03:50) 9.72 (04:20) 0 0 0 0 0
29-07-2019 27.9 (16:20) 17.9 (00:00) 22.9 11.67 (05:30) 7.22 (05:30) 0 0 0 0 0
28-07-2019 31.7 (17:50) 16.6 (00:00) 24.2 12.78 (03:30) 6.39 (02:10) 0 0 0 0 0
27-07-2019 27.8 (18:10) 15.2 (00:00) 21.5 11.11 (23:30) 6.39 (23:30) 0 0 0 0 0
26-07-2019 27.3 (18:10) 15.8 (00:00) 21.5 13.33 (05:30) 6.67 (07:40) 0 0 0 0 0
25-07-2019 32 (17:10) 17.1 (00:00) 24.6 9.44 (14:50) 5.56 (19:40) 0 0 0 0 0
24-07-2019 35.9 (17:30) 19.9 (00:00) 27.9 9.17 (17:40) 5.83 (16:30) 0 0 0 0 0
23-07-2019 35.7 (18:20) 21.2 (00:00) 28.5 10 (23:20) 4.72 (01:10) 5.6 5.6 0 0 0
22-07-2019 38.5 (16:20) 23.2 (00:00) 30.9 10.56 (23:00) 5.28 (01:40) 0 0 0 0 0
21-07-2019 38 (17:00) 23 (00:00) 30.5 10.83 (00:10) 5.28 (00:10) 0 0 0 0 0

Gráficas

Temp. máximas Temp. mínimas Temp. medias Precipitaciones Rachas de viento máximas Velocidades máximas media en intervalos de 10 minutos

Datos horarios

Fecha y hora oficial Temperatura (ºC) Velocidad del viento (km/h) Dirección del viento Racha (km/h) Dirección de racha Precipitación (mm) Presión (hPa) Tendencia (hPa) Humedad (%)
2019-08-19 23:00:00 23.1 17 Norte 36 Norte 0 -- -- 49
2019-08-19 22:00:00 24.8 13 Norte 27 Norte 0 -- -- 38
2019-08-19 21:00:00 25.8 12 Norte 22 Norte 0 -- -- 39
2019-08-19 20:00:00 27.9 8 Norte 18 Norte 0 -- -- 35
2019-08-19 19:00:00 28 6 Norte 17 Nordeste 0 -- -- 33
2019-08-19 18:00:00 28.5 7 Norte 26 Noroeste 0 -- -- 31
2019-08-19 17:00:00 28.3 12 Noroeste 24 Norte 0 -- -- 33
2019-08-19 16:00:00 29.4 6 Oeste 18 Sudoeste 0 -- -- 27
2019-08-19 15:00:00 29.5 5 Nordeste 17 Sudeste 0 -- -- 28
2019-08-19 14:00:00 27.9 4 Nordeste 17 Sudoeste 0 -- -- 35
2019-08-19 13:00:00 26.9 4 Nordeste 13 Sur 0 -- -- 40
2019-08-19 12:00:00 25.6 5 Este 23 Sudeste 0 -- -- 44
2019-08-19 11:00:00 24.5 16 Nordeste 27 Nordeste 0 -- -- 46
2019-08-19 10:00:00 22.1 12 Nordeste 23 Nordeste 0 -- -- 52
2019-08-19 09:00:00 20.3 7 Nordeste 29 Nordeste 0 -- -- 58
2019-08-19 08:00:00 19.2 9 Norte 35 Nordeste 0 -- -- 62
2019-08-19 07:00:00 18.9 14 Nordeste 37 Nordeste 0 -- -- 64
2019-08-19 06:00:00 19.4 8 Norte 30 Nordeste 0 -- -- 65
2019-08-19 05:00:00 19.9 12 Norte 38 Nordeste 0 -- -- 64
2019-08-19 04:00:00 19.6 18 Norte 32 Norte 0 -- -- 67
2019-08-19 03:00:00 20.2 13 Norte 35 Nordeste 0 -- -- 64
2019-08-19 02:00:00 20.6 17 Nordeste 40 Nordeste 0 -- -- 66
2019-08-19 01:00:00 21.1 18 Norte 39 Norte 0 -- -- 62
2019-08-19 00:00:00 22.3 19 Nordeste 35 Nordeste 0 -- -- 62
2019-08-18 23:00:00 22.9 19 Norte 33 Norte 0 -- -- 61
2019-08-18 22:00:00 24.5 14 Norte 31 Norte 0 -- -- 53
2019-08-18 21:00:00 27 10 Noroeste 27 Noroeste 0 -- -- 46
2019-08-18 20:00:00 29.5 15 Norte 27 Norte 0 -- -- 43
2019-08-18 19:00:00 31 15 Oeste 37 Sudoeste 0 -- -- 40
2019-08-18 18:00:00 32.1 19 Oeste 33 Sudoeste 0 -- -- 34
2019-08-18 17:00:00 31.7 13 Sudoeste 30 Oeste 0 -- -- 30
2019-08-18 16:00:00 31.9 8 Este 21 Sudoeste 0 -- -- 28
2019-08-18 15:00:00 31.4 11 Sudeste 19 Sur 0 -- -- 29
2019-08-18 14:00:00 29.8 6 Oeste 18 Sudeste 0 -- -- 32
2019-08-18 13:00:00 28.1 9 Norte 21 Noroeste 0 -- -- 36
2019-08-18 12:00:00 26.9 6 Nordeste 15 Este 0 -- -- 38
2019-08-18 11:00:00 24.1 5 Sur 10 Sudeste 0 -- -- 46
2019-08-18 10:00:00 22.4 5 Este 10 Este 0 -- -- 52
2019-08-18 09:00:00 21.2 5 Oeste 12 Sudoeste 0 -- -- 53
2019-08-18 08:00:00 20 4 Sudeste 28 Norte 0 -- -- 56
2019-08-18 07:00:00 20.8 4 Norte 32 Nordeste 0 -- -- 52
2019-08-18 06:00:00 21.7 13 Nordeste 35 Norte 0 -- -- 51
2019-08-18 05:00:00 22.6 6 Norte 27 Nordeste 0 -- -- 48
2019-08-18 04:00:00 22.6 5 Nordeste 22 Este 0 -- -- 51
2019-08-18 03:00:00 22.4 3 Noroeste 17 Norte 0 -- -- 54
2019-08-18 02:00:00 23 5 Oeste 12 Norte 0 -- -- 55
2019-08-18 01:00:00 25 6 Norte 13 Norte 0 -- -- 49
2019-08-18 00:00:00 26.5 2 Oeste 15 Norte 0 -- -- 44
2019-08-17 23:00:00 28.4 9 Norte 21 Norte 0 -- -- 40
2019-08-17 22:00:00 30 5 Norte 17 Sudoeste 0 -- -- 28
2019-08-17 21:00:00 33.7 6 Sudoeste 18 Sudoeste 0 -- -- 19
2019-08-17 20:00:00 35.8 9 Sudoeste 19 Sudoeste 0 -- -- 17
2019-08-17 19:00:00 36.3 13 Sudoeste 23 Sudoeste 0 -- -- 16
2019-08-17 18:00:00 37 9 Sudoeste 22 Sudoeste 0 -- -- 16
2019-08-17 17:00:00 36.1 15 Sudoeste 31 Sur 0 -- -- 16
2019-08-17 16:00:00 35.5 12 Oeste 24 Oeste 0 -- -- 20
2019-08-17 15:00:00 35.3 10 Sur 21 Sudoeste 0 -- -- 21
2019-08-17 14:00:00 34.2 9 Sur 20 Sudeste 0 -- -- 22
2019-08-17 13:00:00 33.3 8 Sur 16 Sudeste 0 -- -- 22
2019-08-17 12:00:00 32.2 6 Sudeste 12 Sur 0 -- -- 25
2019-08-17 11:00:00 29.7 6 Sur 10 Sur 0 -- -- 29
2019-08-17 10:00:00 25.7 4 Sudoeste 9 Sudoeste 0 -- -- 36
2019-08-17 09:00:00 22.8 2 Sur 10 Nordeste 0 -- -- 41
2019-08-17 08:00:00 20.2 3 Norte 8 Oeste 0 -- -- 51
2019-08-17 07:00:00 22.2 4 Oeste 22 Nordeste 0 -- -- 42
2019-08-17 06:00:00 23.7 3 Noroeste 21 Nordeste 0 -- -- 40
2019-08-17 05:00:00 24.6 8 Nordeste 35 Nordeste 0 -- -- 40
2019-08-17 04:00:00 25 14 Norte 37 Nordeste 0 -- -- 36
2019-08-17 03:00:00 25.1 8 Norte 38 Norte 0 -- -- 34
2019-08-17 02:00:00 25.4 16 Nordeste 48 Norte 0 -- -- 37
2019-08-17 01:00:00 26.1 19 Norte 38 Norte 0 -- -- 36
2019-08-17 00:00:00 26.7 7 Norte 40 Norte 0 -- -- 32
2019-08-16 23:00:00 27.1 24 Norte 46 Norte 0 -- -- 37
2019-08-16 22:00:00 28.7 21 Norte 35 Norte 0 -- -- 40
2019-08-16 21:00:00 31.8 15 Norte 29 Norte 0 -- -- 33
2019-08-16 20:00:00 34.3 16 Norte 31 Norte 0 -- -- 24
2019-08-16 19:00:00 35.8 15 Norte 29 Norte 0 -- -- 19
2019-08-16 18:00:00 36.8 16 Norte 43 Sudoeste 0 -- -- 19
2019-08-16 17:00:00 36.7 8 Sur 28 Sudoeste 0 -- -- 21
2019-08-16 16:00:00 36.1 7 Sur 22 Sudoeste 0 -- -- 24
2019-08-16 15:00:00 35.3 11 Sudoeste 23 Sudeste 0 -- -- 26
2019-08-16 14:00:00 34 12 Sur 32 Sur 0 -- -- 28
2019-08-16 13:00:00 33.1 12 Sur 18 Sur 0 -- -- 31
2019-08-16 12:00:00 31.5 7 Sur 24 Sur 0 -- -- 35
2019-08-16 11:00:00 30.1 12 Nordeste 19 Nordeste 0 -- -- 39
2019-08-16 10:00:00 28 3 Sur 8 Sur 0 -- -- 45
2019-08-16 09:00:00 24.7 4 Sudoeste 30 Nordeste 0 -- -- 53
2019-08-16 08:00:00 23.3 8 Norte 21 Nordeste 0 -- -- 56
2019-08-16 07:00:00 23.9 4 Norte 32 Nordeste 0 -- -- 55
2019-08-16 06:00:00 25.2 15 Nordeste 33 Nordeste 0 -- -- 49
2019-08-16 05:00:00 24.8 10 Norte 32 Nordeste 0 -- -- 51
2019-08-16 04:00:00 25.1 16 Norte 32 Nordeste 0 -- -- 54
2019-08-16 03:00:00 25.7 5 Norte 24 Norte 0 -- -- 50
2019-08-16 02:00:00 25.7 6 Norte 46 Norte 0 -- -- 52
2019-08-16 01:00:00 26 26 Norte 50 Norte 0 -- -- 51
2019-08-16 00:00:00 26.7 25 Norte 44 Norte 0 -- -- 49
2019-08-15 23:00:00 27.6 23 Norte 44 Norte 0 -- -- 47
2019-08-15 22:00:00 29.4 21 Norte 37 Norte 0 -- -- 42
2019-08-15 21:00:00 32.2 11 Noroeste 26 Noroeste 0 -- -- 30
2019-08-15 20:00:00 34.6 10 Noroeste 24 Noroeste 0 -- -- 26
2019-08-15 19:00:00 35.4 13 Norte 25 Norte 0 -- -- 21
2019-08-15 18:00:00 35.8 12 Norte 28 Norte 0 -- -- 21
2019-08-15 17:00:00 35.9 12 Noroeste 26 Noroeste 0 -- -- 20
2019-08-15 16:00:00 35.3 14 Nordeste 28 Nordeste 0 -- -- 21
2019-08-15 15:00:00 34.1 14 Nordeste 31 Nordeste 0 -- -- 24
2019-08-15 14:00:00 33.8 17 Nordeste 33 Nordeste 0 -- -- 23
2019-08-15 13:00:00 32.5 13 Nordeste 24 Nordeste 0 -- -- 29
2019-08-15 12:00:00 31.1 5 Este 21 Nordeste 0 -- -- 29
2019-08-15 11:00:00 29.5 8 Nordeste 32 Nordeste 0 -- -- 37
2019-08-15 10:00:00 27 10 Nordeste 46 Nordeste 0 -- -- 39
2019-08-15 09:00:00 23.7 34 Nordeste 55 Nordeste 0 -- -- 48
2019-08-15 08:00:00 22.6 20 Nordeste 36 Nordeste 0 -- -- 47
2019-08-15 07:00:00 22.9 9 Este 28 Este 0 -- -- 51
2019-08-15 06:00:00 23.8 9 Norte 33 Norte 0 -- -- 44
2019-08-15 05:00:00 23.8 11 Norte 41 Noroeste 0 -- -- 49
2019-08-15 04:00:00 23.4 17 Norte 41 Norte 0 -- -- 66
2019-08-15 03:00:00 24.7 11 Norte 31 Norte 0 -- -- 60
2019-08-15 02:00:00 25.1 19 Norte 40 Norte 0 -- -- 59
2019-08-15 01:00:00 25.3 18 Norte 45 Norte 0 -- -- 58
2019-08-15 00:00:00 26.2 21 Norte 41 Norte 0 -- -- 53
2019-08-14 23:00:00 27.3 22 Norte 44 Noroeste 0 -- -- 47
2019-08-14 22:00:00 28.6 19 Norte 40 Norte 0 -- -- 43
2019-08-14 21:00:00 30.8 13 Norte 28 Norte 0 -- -- 34
2019-08-14 20:00:00 33.3 10 Norte 24 Norte 0 -- -- 27
2019-08-14 19:00:00 34.2 12 Noroeste 32 Nordeste 0 -- -- 24
2019-08-14 18:00:00 34.5 9 Norte 21 Noroeste 0 -- -- 22
2019-08-14 17:00:00 34.8 8 Norte 16 Norte 0 -- -- 21
2019-08-14 16:00:00 34 8 Sudeste 20 Oeste 0 -- -- 20
2019-08-14 15:00:00 33.2 8 Sur 23 Sur 0 -- -- 20
2019-08-14 14:00:00 32.1 4 Sur 22 Sur 0 -- -- 21
2019-08-14 13:00:00 31.2 10 Sudeste 18 Sudeste 0 -- -- 20
2019-08-14 12:00:00 29.5 5 Oeste 13 Sudoeste 0 -- -- 21
2019-08-14 11:00:00 28.8 7 Sudeste 12 Sur 0 -- -- 23
2019-08-14 10:00:00 26 2 Sur 4 Sudeste 0 -- -- 30
2019-08-14 09:00:00 22.1 0 Calma 5 Nordeste 0 -- -- 37
2019-08-14 08:00:00 18.4 3 Norte 12 Nordeste 0 -- -- 41
2019-08-14 07:00:00 20 0 Calma 21 Nordeste 0 -- -- 40
2019-08-14 06:00:00 22.1 8 Nordeste 24 Nordeste 0 -- -- 36
2019-08-14 05:00:00 22.1 12 Nordeste 30 Norte 0 -- -- 38
2019-08-14 04:00:00 22.2 15 Norte 37 Norte 0 -- -- 42
2019-08-14 03:00:00 22.6 4 Nordeste 27 Norte 0 -- -- 39
2019-08-14 02:00:00 23.3 17 Norte 37 Norte 0 -- -- 37
2019-08-14 01:00:00 23.3 17 Norte 42 Norte 0 -- -- 37
2019-08-14 00:00:00 24 16 Norte 30 Norte 0 -- -- 26
2019-08-13 23:00:00 25.2 9 Norte 28 Norte 0 -- -- 23
2019-08-13 22:00:00 25.7 13 Norte 25 Norte 0 -- -- 23
2019-08-13 21:00:00 27.9 9 Norte 25 Norte 0 -- -- 21
2019-08-13 20:00:00 30.2 9 Norte 26 Nordeste 0 -- -- 20
2019-08-13 19:00:00 30.8 13 Norte 24 Norte 0 -- -- 19
2019-08-13 18:00:00 31.3 9 Norte 28 Norte 0 -- -- 18
2019-08-13 17:00:00 31.1 13 Nordeste 25 Nordeste 0 -- -- 18
2019-08-13 16:00:00 30.4 9 Sudeste 22 Este 0 -- -- 19
2019-08-13 15:00:00 29.1 5 Norte 23 Este 0 -- -- 21
2019-08-13 14:00:00 28.4 9 Este 24 Nordeste 0 -- -- 23
2019-08-13 13:00:00 27.3 12 Nordeste 27 Nordeste 0 -- -- 26
2019-08-13 12:00:00 25.9 19 Nordeste 27 Nordeste 0 -- -- 31
2019-08-13 11:00:00 24.6 9 Nordeste 17 Nordeste 0 -- -- 32
2019-08-13 10:00:00 22.8 3 Este 13 Norte 0 -- -- 36
2019-08-13 09:00:00 19.3 0 Calma 7 Norte 0 -- -- 42
2019-08-13 08:00:00 16.7 3 Norte 17 Norte 0 -- -- 44
2019-08-13 07:00:00 17.5 11 Norte 19 Norte 0 -- -- 42
2019-08-13 06:00:00 18.1 8 Norte 23 Norte 0 -- -- 40
2019-08-13 05:00:00 18.4 6 Nordeste 34 Noroeste 0 -- -- 40
2019-08-13 04:00:00 19 8 Noroeste 23 Oeste 0 -- -- 38
2019-08-13 03:00:00 19.6 8 Oeste 44 Nordeste 0 -- -- 37
2019-08-13 02:00:00 20.1 8 Sudeste 33 Norte 0 -- -- 35
2019-08-13 01:00:00 22 16 Nordeste 39 Norte 0 -- -- 27
2019-08-13 00:00:00 22.5 16 Norte 34 Nordeste 0 -- -- 26
2019-08-12 23:00:00 23 15 Norte 32 Norte 0 -- -- 26
2019-08-12 22:00:00 23.9 18 Norte 33 Nordeste 0 -- -- 25
2019-08-12 21:00:00 24.5 15 Norte 32 Norte 0 -- -- 25
2019-08-12 20:00:00 25.8 19 Norte 40 Norte 0 -- -- 25
2019-08-12 19:00:00 26.6 18 Nordeste 39 Nordeste 0 -- -- 24
2019-08-12 18:00:00 26.8 22 Nordeste 38 Nordeste 0 -- -- 24
2019-08-12 17:00:00 26.6 19 Norte 42 Norte 0 -- -- 23
2019-08-12 16:00:00 26.5 18 Norte 38 Nordeste 0 -- -- 24
2019-08-12 15:00:00 25.6 22 Nordeste 42 Nordeste 0 -- -- 27
2019-08-12 14:00:00 24.5 16 Norte 39 Nordeste 0 -- -- 31
2019-08-12 13:00:00 22.8 24 Nordeste 46 Nordeste 0 -- -- 36
2019-08-12 12:00:00 20.6 23 Nordeste 52 Nordeste 0 -- -- 41
2019-08-12 11:00:00 18.7 19 Nordeste 42 Nordeste 0 -- -- 50
2019-08-12 10:00:00 17.5 10 Sudeste 24 Este 0 -- -- 53
2019-08-12 09:00:00 16.1 10 Oeste 26 Sudoeste 0 -- -- 56
2019-08-12 08:00:00 14.7 11 Nordeste 37 Nordeste 0 -- -- 61
2019-08-12 07:00:00 14.9 13 Norte 38 Norte 0 -- -- 63
2019-08-12 06:00:00 14.6 13 Nordeste 32 Nordeste 0 -- -- 66
2019-08-12 05:00:00 15 6 Noroeste 42 Norte 0 -- -- 64
2019-08-12 04:00:00 14.9 22 Norte 43 Noroeste 0 -- -- 66
2019-08-12 03:00:00 15.4 20 Norte 44 Norte 0 -- -- 64
2019-08-12 02:00:00 15.8 23 Norte 46 Norte 0 -- -- 62
2019-08-12 01:00:00 16.4 21 Norte 41 Norte 0 -- -- 58
2019-08-12 00:00:00 17.1 22 Norte 44 Norte 0 -- -- 54
2019-08-11 23:00:00 18.2 18 Norte 40 Norte 0 -- -- 53
2019-08-11 22:00:00 19.7 11 Noroeste 26 Noroeste 0 -- -- 47
2019-08-11 21:00:00 21.6 12 Noroeste 31 Noroeste 0 -- -- 39
2019-08-11 20:00:00 24.1 11 Noroeste 29 Noroeste 0 -- -- 32
2019-08-11 19:00:00 24.9 15 Noroeste 34 Noroeste 0 -- -- 29
2019-08-11 18:00:00 25.1 17 Noroeste 38 Noroeste 0 -- -- 29
2019-08-11 17:00:00 25.1 17 Noroeste 36 Noroeste 0 -- -- 30
2019-08-11 16:00:00 25.1 14 Noroeste 32 Oeste 0 -- -- 33
2019-08-11 15:00:00 24 17 Noroeste 35 Noroeste 0 -- -- 35
2019-08-11 14:00:00 22.4 8 Norte 35 Noroeste 0 -- -- 39
2019-08-11 13:00:00 22.2 18 Noroeste 36 Norte 0 -- -- 37
2019-08-11 12:00:00 20.8 20 Norte 35 Norte 0 -- -- 43
2019-08-11 11:00:00 19.8 20 Norte 44 Norte 0 -- -- 47
2019-08-11 10:00:00 17.8 20 Norte 42 Norte 0 -- -- 54
2019-08-11 09:00:00 16.5 14 Norte 37 Norte 0 -- -- 62
2019-08-11 08:00:00 15.5 18 Norte 38 Norte 0 -- -- 69
2019-08-11 07:00:00 15.5 19 Norte 38 Norte 0 -- -- 68
2019-08-11 06:00:00 16.1 20 Norte 38 Norte 0 -- -- 69
2019-08-11 05:00:00 17 22 Norte 39 Norte 0 -- -- 70
2019-08-11 04:00:00 17.5 9 Oeste 18 Norte 0 -- -- 68
2019-08-11 03:00:00 17.4 15 Norte 38 Norte 0.2 -- -- 73
2019-08-11 02:00:00 19.1 21 Norte 44 Norte 0 -- -- 58
2019-08-11 01:00:00 19.6 20 Norte 43 Norte 0 -- -- 60
2019-08-11 00:00:00 20.4 18 Norte 47 Norte 0 -- -- 58
2019-08-10 23:00:00 21.9 21 Norte 43 Norte 0 -- -- 54
2019-08-10 22:00:00 23.5 17 Norte 31 Norte 0 -- -- 43
2019-08-10 21:00:00 25.9 12 Norte 27 Norte 0 -- -- 39
2019-08-10 20:00:00 27.6 9 Sudoeste 19 Oeste 0 -- -- 31
2019-08-10 19:00:00 28.9 3 Oeste 21 Sudoeste 0 -- -- 29
2019-08-10 18:00:00 28.8 10 Sudoeste 22 Sudoeste 0 -- -- 28
2019-08-10 17:00:00 28.9 10 Sudeste 23 Sur 0 -- -- 32
2019-08-10 16:00:00 28.4 10 Sudeste 18 Sur 0 -- -- 34
2019-08-10 15:00:00 27 8 Sudoeste 17 Sudoeste 0 -- -- 38
2019-08-10 14:00:00 26 5 Sudeste 21 Este 0 -- -- 40
2019-08-10 13:00:00 24.8 6 Sur 14 Sur 0 -- -- 44
2019-08-10 12:00:00 22.7 6 Nordeste 18 Nordeste 0 -- -- 48
2019-08-10 11:00:00 21.8 8 Este 31 Nordeste 0 -- -- 54
2019-08-10 10:00:00 19.8 17 Nordeste 30 Norte 0 -- -- 65
2019-08-10 09:00:00 18.3 12 Norte 29 Nordeste 0 -- -- 71
2019-08-10 08:00:00 16.2 7 Norte 19 Nordeste 0 -- -- 77
2019-08-10 07:00:00 14 4 Norte 8 Nordeste 0 -- -- 86
2019-08-10 06:00:00 15.1 7 Oeste 10 Oeste 0 -- -- 81
2019-08-10 05:00:00 14.6 3 Oeste 9 Nordeste 0 -- -- 85
2019-08-10 04:00:00 15.2 4 Oeste 8 Oeste 0 -- -- 85
2019-08-10 03:00:00 16.8 3 Noroeste 13 Nordeste 0 -- -- 78
2019-08-10 02:00:00 17.6 6 Norte 17 Norte 0 -- -- 76
2019-08-10 01:00:00 17.3 5 Norte 10 Norte 0 -- -- 76
2019-08-10 00:00:00 17.8 6 Noroeste 12 Norte 0 -- -- 78
2019-08-09 23:00:00 17.8 10 Norte 13 Noroeste 0 -- -- 85
2019-08-09 22:00:00 18.4 8 Norte 11 Norte 0 -- -- 86
2019-08-09 21:00:00 21.2 3 Nordeste 8 Este 0 -- -- 73
2019-08-09 20:00:00 22.1 3 Sur 11 Este 0 -- -- 67
2019-08-09 19:00:00 21.3 4 Sudoeste 9 Sur 0 -- -- 72
2019-08-09 18:00:00 20 5 Nordeste 9 Nordeste 0 -- -- 77
2019-08-09 17:00:00 18.7 5 Sur 19 Sudoeste 0 -- -- 82
2019-08-09 16:00:00 18.6 5 Sudeste 22 Sur 1 -- -- 85
2019-08-09 15:00:00 20.8 5 Sudoeste 19 Sudoeste 0 -- -- 75
2019-08-09 14:00:00 20.8 8 Sur 15 Sudoeste 0 -- -- 82
2019-08-09 13:00:00 21.1 4 Sudoeste 17 Sudoeste 0 -- -- 83
2019-08-09 12:00:00 19.8 8 Sudoeste 17 Sudoeste 0.6 -- -- 91
2019-08-09 11:00:00 19.9 7 Sudoeste 25 Sudoeste 0.4 -- -- 96
2019-08-09 10:00:00 20.2 11 Sudoeste 24 Sudoeste 0.8 -- -- 97
2019-08-09 09:00:00 20.1 9 Sur 17 Sur 0.2 -- -- 97
2019-08-09 08:00:00 20.1 9 Sur 18 Sur 0.4 -- -- 96
2019-08-09 07:00:00 20 9 Sur 17 Sudoeste 0.6 -- -- 95
2019-08-09 06:00:00 20.3 8 Sudoeste 17 Sudoeste 0 -- -- 91
2019-08-09 05:00:00 21.1 7 Sudoeste 15 Sudoeste 0 -- -- 84
2019-08-09 04:00:00 20.9 4 Sudoeste 10 Oeste 0 -- -- 82
2019-08-09 03:00:00 21.1 4 Sudoeste 16 Sudoeste 0 -- -- 81
2019-08-09 02:00:00 21.7 7 Sudoeste 14 Sur 0 -- -- 76
2019-08-09 01:00:00 22.2 0 Calma 14 Oeste 0 -- -- 71
2019-08-09 00:00:00 23.2 6 Sudoeste 15 Oeste 0 -- -- 67
2019-08-08 23:00:00 24.5 9 Oeste 22 Oeste 0 -- -- 62
2019-08-08 22:00:00 25.8 11 Oeste 24 Oeste 0 -- -- 56
2019-08-08 21:00:00 27.4 17 Oeste 33 Sudoeste 0 -- -- 50
2019-08-08 20:00:00 28.6 15 Oeste 36 Oeste 0 -- -- 47
2019-08-08 19:00:00 28.2 15 Sudoeste 34 Sudoeste 0 -- -- 49
2019-08-08 18:00:00 28.9 16 Sudoeste 37 Sudoeste 0 -- -- 48
2019-08-08 17:00:00 28.7 17 Sudoeste 37 Sudoeste 0 -- -- 49
2019-08-08 16:00:00 29 17 Sudoeste 36 Sudoeste 0 -- -- 49
2019-08-08 15:00:00 27.9 16 Sudoeste 32 Sudoeste 0 -- -- 53
2019-08-08 14:00:00 26 12 Sur 25 Sur 0 -- -- 62
2019-08-08 13:00:00 23.4 11 Oeste 21 Oeste 0 -- -- 73
2019-08-08 12:00:00 23.1 3 Nordeste 9 Sur 0 -- -- 71
2019-08-08 11:00:00 21.1 4 Norte 7 Nordeste 0 -- -- 80
2019-08-08 10:00:00 20.5 3 Sudoeste 12 Sur 0 -- -- 83
2019-08-08 09:00:00 21 4 Sudeste 7 Sudeste 0 -- -- 75
2019-08-08 08:00:00 20.9 2 Este 4 Sudeste 0 -- -- 71
2019-08-08 07:00:00 20.7 2 Nordeste 6 Sudoeste 0 -- -- 68
2019-08-08 06:00:00 20.7 0 Calma 5 Oeste 0 -- -- 66
2019-08-08 05:00:00 20.6 3 Este 5 Este 0 -- -- 67
2019-08-08 04:00:00 20.3 0 Calma 6 Norte 0 -- -- 67
2019-08-08 03:00:00 20.1 4 Norte 9 Norte 0 -- -- 67
2019-08-08 02:00:00 20.5 6 Norte 9 Norte 0 -- -- 65
2019-08-08 01:00:00 21.5 5 Norte 9 Norte 0 -- -- 61
2019-08-08 00:00:00 21.2 6 Norte 9 Norte 0 -- -- 62
2019-08-07 23:00:00 22.2 4 Noroeste 14 Sudoeste 0 -- -- 58
2019-08-07 22:00:00 24 10 Sudoeste 18 Sur 0 -- -- 52
2019-08-07 21:00:00 25.2 8 Sudoeste 16 Sudoeste 0 -- -- 52
2019-08-07 20:00:00 25.5 7 Sur 22 Oeste 0 -- -- 54
2019-08-07 19:00:00 26.7 7 Sur 23 Oeste 0 -- -- 51
2019-08-07 18:00:00 26 10 Sudoeste 21 Sudoeste 0 -- -- 52
2019-08-07 17:00:00 25.2 13 Sudoeste 22 Sudoeste 0 -- -- 53
2019-08-07 16:00:00 26.3 7 Sur 17 Sur 0 -- -- 46
2019-08-07 15:00:00 24.3 3 Sudeste 15 Sudoeste 0 -- -- 50
2019-08-07 14:00:00 23.8 10 Sur 17 Sur 0 -- -- 56
2019-08-07 13:00:00 22.9 4 Sur 12 Sudoeste 0 -- -- 58
2019-08-07 12:00:00 22.6 8 Sudoeste 12 Sudoeste 0 -- -- 60
2019-08-07 11:00:00 22.1 5 Sudoeste 9 Sudoeste 0 -- -- 61
2019-08-07 10:00:00 21.4 3 Sudoeste 6 Sudoeste 0 -- -- 63
2019-08-07 09:00:00 20.3 2 Sur 4 Sudoeste 0 -- -- 66
2019-08-07 08:00:00 19.8 2 Norte 5 Sudeste 0 -- -- 64
2019-08-07 07:00:00 20 3 Norte 6 Norte 0 -- -- 62
2019-08-07 06:00:00 21.2 0 Calma 5 Noroeste 0 -- -- 58
2019-08-07 05:00:00 21.8 3 Noroeste 6 Sudoeste 0 -- -- 56
2019-08-07 04:00:00 22.7 4 Sudoeste 9 Sur 0 -- -- 51
2019-08-07 03:00:00 23.5 9 Sur 15 Sudeste 0 -- -- 50
2019-08-07 02:00:00 24.5 3 Nordeste 14 Nordeste 0 -- -- 39
2019-08-07 01:00:00 24.6 14 Nordeste 23 Nordeste 0 -- -- 52
2019-08-07 00:00:00 24.6 8 Norte 15 Norte 0 -- -- 53
2019-08-06 23:00:00 25.6 2 Oeste 19 Norte 0 -- -- 52
2019-08-06 22:00:00 26 13 Norte 21 Norte 0 -- -- 52
2019-08-06 21:00:00 29.2 10 Oeste 22 Sudoeste 0 -- -- 40
2019-08-06 20:00:00 30.6 15 Sudoeste 28 Sudoeste 0 -- -- 36
2019-08-06 19:00:00 32.1 13 Sudoeste 22 Sudoeste 0 -- -- 32
2019-08-06 18:00:00 32.7 10 Sudoeste 24 Sur 0 -- -- 29
2019-08-06 17:00:00 32.7 12 Sudoeste 26 Sudoeste 0 -- -- 29
2019-08-06 16:00:00 32.6 11 Oeste 25 Sudoeste 0 -- -- 30
2019-08-06 15:00:00 32.5 12 Sur 25 Sur 0 -- -- 30
2019-08-06 14:00:00 31.7 10 Sur 21 Sudoeste 0 -- -- 31
2019-08-06 13:00:00 31 8 Sudeste 18 Sudeste 0 -- -- 33
2019-08-06 12:00:00 28.9 8 Sudoeste 16 Sudoeste 0 -- -- 38
2019-08-06 11:00:00 27.3 6 Sur 13 Sur 0 -- -- 40
2019-08-06 10:00:00 25.5 6 Sur 10 Sur 0 -- -- 45
2019-08-06 09:00:00 23 2 Nordeste 8 Oeste 0 -- -- 52
2019-08-06 08:00:00 20.4 6 Oeste 9 Oeste 0 -- -- 57
2019-08-06 07:00:00 22.5 3 Nordeste 37 Nordeste 0 -- -- 51
2019-08-06 06:00:00 22.7 5 Nordeste 31 Norte 0 -- -- 50
2019-08-06 05:00:00 23.6 12 Norte 27 Norte 0 -- -- 46
2019-08-06 04:00:00 23.8 8 Norte 23 Norte 0 -- -- 45
2019-08-06 03:00:00 24.6 5 Nordeste 22 Nordeste 0 -- -- 42
2019-08-06 02:00:00 25.1 15 Norte 34 Norte 0 -- -- 44
2019-08-06 01:00:00 25.7 18 Norte 30 Norte 0 -- -- 45
2019-08-06 00:00:00 26.3 8 Nordeste 30 Norte 0 -- -- 45
2019-08-05 23:00:00 27.1 17 Norte 34 Norte 0 -- -- 43
2019-08-05 22:00:00 28.8 13 Norte 27 Norte 0 -- -- 38
2019-08-05 21:00:00 31.2 13 Norte 28 Norte 0 -- -- 31
2019-08-05 20:00:00 34.2 12 Sudoeste 23 Sudoeste 0 -- -- 25
2019-08-05 19:00:00 35 5 Sur 26 Sudeste 0 -- -- 22
2019-08-05 18:00:00 35.1 9 Sur 26 Sudoeste 0 -- -- 23
2019-08-05 17:00:00 34.5 11 Sudeste 23 Sudoeste 0 -- -- 23
2019-08-05 16:00:00 34.2 10 Sudoeste 22 Sudoeste 0 -- -- 21
2019-08-05 15:00:00 33.4 7 Sur 22 Sur 0 -- -- 20
2019-08-05 14:00:00 32 6 Este 22 Sudeste 0 -- -- 26
2019-08-05 13:00:00 30.5 6 Sudeste 15 Este 0 -- -- 33
2019-08-05 12:00:00 29.4 6 Sudeste 13 Sudeste 0 -- -- 39
2019-08-05 11:00:00 26.9 5 Sur 10 Sur 0 -- -- 44
2019-08-05 10:00:00 23.6 6 Sur 9 Sur 0 -- -- 54
2019-08-05 09:00:00 20.5 3 Sudoeste 5 Sudoeste 0 -- -- 62
2019-08-05 08:00:00 16.8 0 Calma 3 Sudoeste 0 -- -- 73
2019-08-05 07:00:00 16.8 2 Este 7 Oeste 0 -- -- 69
2019-08-05 06:00:00 18.4 3 Sudoeste 7 Sudoeste 0 -- -- 62
2019-08-05 05:00:00 20.8 2 Sur 10 Este 0 -- -- 54
2019-08-05 04:00:00 22.2 2 Noroeste 8 Este 0 -- -- 49
2019-08-05 03:00:00 22.6 3 Nordeste 11 Norte 0 -- -- 51
2019-08-05 02:00:00 23.2 4 Norte 20 Nordeste 0 -- -- 52
2019-08-05 01:00:00 23.7 8 Norte 17 Norte 0 -- -- 55
2019-08-05 00:00:00 24.2 12 Norte 26 Norte 0 -- -- 54
2019-08-04 23:00:00 25.9 8 Noroeste 16 Norte 0 -- -- 46
2019-08-04 22:00:00 28.3 6 Noroeste 18 Sudoeste 0 -- -- 39
2019-08-04 21:00:00 30.8 12 Sudoeste 25 Oeste 0 -- -- 32
2019-08-04 20:00:00 32.7 16 Sudoeste 28 Sudoeste 0 -- -- 27
2019-08-04 19:00:00 33.7 14 Sudoeste 28 Sudoeste 0 -- -- 25
2019-08-04 18:00:00 34.4 13 Sudoeste 31 Oeste 0 -- -- 21
2019-08-04 17:00:00 34.6 8 Sudoeste 29 Sudoeste 0 -- -- 21
2019-08-04 16:00:00 34.1 15 Sudoeste 49 Sudeste 0 -- -- 23
2019-08-04 15:00:00 33.1 8 Oeste 25 Sur 0 -- -- 27
2019-08-04 14:00:00 32.7 9 Sudeste 25 Sur 0 -- -- 29
2019-08-04 13:00:00 31.3 12 Sudeste 22 Sudeste 0 -- -- 33
2019-08-04 12:00:00 30 9 Sur 18 Sur 0 -- -- 36
2019-08-04 11:00:00 29.1 5 Nordeste 10 Sudeste 0 -- -- 40
2019-08-04 10:00:00 26.8 6 Este 18 Nordeste 0 -- -- 46
2019-08-04 09:00:00 24.2 7 Norte 17 Norte 0 -- -- 52
2019-08-04 08:00:00 21.7 3 Noroeste 14 Nordeste 0 -- -- 58
2019-08-04 07:00:00 22.9 11 Nordeste 24 Nordeste 0 -- -- 53
2019-08-04 06:00:00 22.6 7 Norte 29 Norte 0 -- -- 54
2019-08-04 05:00:00 23 19 Norte 34 Norte 0 -- -- 52
2019-08-04 04:00:00 23.6 5 Norte 30 Norte 0 -- -- 49
2019-08-04 03:00:00 23.8 17 Norte 34 Norte 0 -- -- 49
2019-08-04 02:00:00 24.1 11 Norte 30 Norte 0 -- -- 50
2019-08-04 01:00:00 24.8 9 Nordeste 32 Norte 0 -- -- 48
2019-08-04 00:00:00 25.3 19 Norte 40 Norte 0 -- -- 48
2019-08-03 23:00:00 26.4 20 Norte 37 Norte 0 -- -- 46
2019-08-03 22:00:00 28.3 20 Norte 33 Norte 0 -- -- 43
2019-08-03 21:00:00 31 15 Noroeste 33 Norte 0 -- -- 35
2019-08-03 20:00:00 34.8 7 Sudoeste 14 Sudoeste 0 -- -- 22
2019-08-03 19:00:00 35.1 11 Sudoeste 21 Sur 0 -- -- 22
2019-08-03 18:00:00 34.9 9 Este 24 Sudeste 0 -- -- 21
2019-08-03 17:00:00 35.2 12 Sudoeste 23 Sudeste 0 -- -- 21
2019-08-03 16:00:00 34.4 4 Sudeste 24 Sudoeste 0 -- -- 23
2019-08-03 15:00:00 33.8 9 Sudeste 19 Sudeste 0 -- -- 25
2019-08-03 14:00:00 32.5 8 Sudeste 18 Sudoeste 0 -- -- 30
2019-08-03 13:00:00 31.8 8 Sur 18 Sur 0 -- -- 32
2019-08-03 12:00:00 30.7 8 Sur 16 Sudeste 0 -- -- 33
2019-08-03 11:00:00 28.7 7 Sur 10 Sudeste 0 -- -- 39
2019-08-03 10:00:00 26.5 4 Sur 9 Sur 0 -- -- 45
2019-08-03 09:00:00 23.6 4 Sudoeste 6 Sudoeste 0 -- -- 51
2019-08-03 08:00:00 22.4 6 Oeste 10 Oeste 0 -- -- 53
2019-08-03 07:00:00 24.8 5 Nordeste 28 Nordeste 0 -- -- 47
2019-08-03 06:00:00 25.4 9 Nordeste 28 Norte 0 -- -- 45
2019-08-03 05:00:00 25 17 Nordeste 35 Norte 0 -- -- 48
2019-08-03 04:00:00 24.9 8 Norte 19 Norte 0 -- -- 50
2019-08-03 03:00:00 25.4 7 Nordeste 28 Norte 0 -- -- 50
2019-08-03 02:00:00 25.7 11 Norte 35 Norte 0 -- -- 50
2019-08-03 01:00:00 26.1 13 Norte 31 Norte 0 -- -- 48
2019-08-03 00:00:00 27 19 Norte 35 Norte 0 -- -- 48
2019-08-02 23:00:00 28.3 13 Norte 27 Norte 0 -- -- 44
2019-08-02 22:00:00 29.8 6 Nordeste 11 Nordeste 0 -- -- 26
2019-08-02 21:00:00 33.4 5 Sudoeste 15 Sudoeste 0 -- -- 23
2019-08-02 20:00:00 34.6 4 Sur 17 Sur 0 -- -- 21
2019-08-02 19:00:00 34.6 9 Este 17 Sudeste 0 -- -- 21
2019-08-02 18:00:00 35 8 Sur 25 Noroeste 0 -- -- 21
2019-08-02 17:00:00 35 9 Sur 24 Sudeste 0 -- -- 21
2019-08-02 16:00:00 34.5 12 Sur 22 Sur 0 -- -- 22
2019-08-02 15:00:00 33.4 11 Sur 24 Sudeste 0 -- -- 25
2019-08-02 14:00:00 32.2 8 Sur 19 Sur 0 -- -- 27
2019-08-02 13:00:00 30.8 9 Sur 16 Sudeste 0 -- -- 29
2019-08-02 12:00:00 30.1 6 Sur 13 Sur 0 -- -- 32
2019-08-02 11:00:00 27.9 4 Este 9 Sudeste 0 -- -- 37
2019-08-02 10:00:00 25.7 6 Sudeste 8 Sudeste 0 -- -- 40
2019-08-02 09:00:00 22.6 3 Sur 8 Norte 0 -- -- 46
2019-08-02 08:00:00 20.7 2 Este 25 Nordeste 0 -- -- 49
2019-08-02 07:00:00 22.6 15 Nordeste 24 Nordeste 0 -- -- 45
2019-08-02 06:00:00 21.9 6 Este 26 Nordeste 0 -- -- 47
2019-08-02 05:00:00 22 4 Sudoeste 27 Norte 0 -- -- 41
2019-08-02 04:00:00 23.1 7 Norte 27 Nordeste 0 -- -- 37
2019-08-02 03:00:00 23.3 7 Nordeste 22 Norte 0 -- -- 36
2019-08-02 02:00:00 23.1 6 Norte 28 Norte 0 -- -- 40
2019-08-02 01:00:00 23.7 10 Nordeste 29 Norte 0 -- -- 37
2019-08-02 00:00:00 24.5 14 Nordeste 30 Norte 0 -- -- 36
2019-08-01 23:00:00 25.3 5 Nordeste 24 Norte 0 -- -- 32
2019-08-01 22:00:00 26.7 11 Norte 22 Norte 0 -- -- 29
2019-08-01 21:00:00 30.1 11 Oeste 27 Oeste 0 -- -- 22
2019-08-01 20:00:00 32.1 16 Oeste 28 Sudoeste 0 -- -- 22
2019-08-01 19:00:00 33.3 15 Oeste 31 Sudoeste 0 -- -- 21
2019-08-01 18:00:00 33.7 14 Sudoeste 31 Sudoeste 0 -- -- 19
2019-08-01 17:00:00 34.4 13 Sur 30 Sudoeste 0 -- -- 17
2019-08-01 16:00:00 33.4 11 Sudoeste 27 Sudoeste 0 -- -- 20
2019-08-01 15:00:00 32.9 13 Sudoeste 24 Sudoeste 0 -- -- 23
2019-08-01 14:00:00 31.8 6 Este 20 Sudoeste 0 -- -- 25
2019-08-01 13:00:00 30.8 12 Sudeste 19 Este 0 -- -- 27
2019-08-01 12:00:00 29.9 7 Sudeste 14 Sudeste 0 -- -- 28
2019-08-01 11:00:00 28.3 6 Sudeste 11 Sur 0 -- -- 32
2019-08-01 10:00:00 25.9 4 Sur 10 Nordeste 0 -- -- 38
2019-08-01 09:00:00 24.5 5 Nordeste 25 Norte 0 -- -- 40
2019-08-01 08:00:00 21.8 7 Norte 23 Nordeste 0 -- -- 45
2019-08-01 07:00:00 22.1 12 Norte 26 Norte 0 -- -- 43
2019-08-01 06:00:00 22.2 8 Norte 22 Norte 0 -- -- 42
2019-08-01 05:00:00 22.6 17 Norte 30 Norte 0 -- -- 43
2019-08-01 04:00:00 23.6 11 Norte 32 Norte 0 -- -- 39
2019-08-01 03:00:00 23.6 9 Norte 41 Norte 0 -- -- 40
2019-08-01 02:00:00 24.4 19 Norte 40 Noroeste 0 -- -- 35
2019-08-01 01:00:00 25.7 13 Norte 34 Noroeste 0 -- -- 33
2019-08-01 00:00:00 26.5 17 Norte 36 Norte 0 -- -- 33
2019-07-31 23:00:00 26.7 15 Norte 37 Norte 0 -- -- 34
2019-07-31 22:00:00 27.3 18 Norte 34 Norte 0 -- -- 34
2019-07-31 21:00:00 28.2 18 Norte 37 Norte 0 -- -- 33
2019-07-31 20:00:00 29.2 19 Norte 32 Norte 0 -- -- 31
2019-07-31 19:00:00 31.8 6 Sudeste 13 Nordeste 0 -- -- 19
2019-07-31 18:00:00 31.8 4 Nordeste 18 Nordeste 0 -- -- 22
2019-07-31 17:00:00 31.8 9 Sur 26 Sudeste 0 -- -- 24
2019-07-31 16:00:00 32.5 9 Sur 29 Este 0 -- -- 23
2019-07-31 15:00:00 31.4 11 Sudeste 21 Oeste 0 -- -- 25
2019-07-31 14:00:00 29.8 9 Nordeste 22 Nordeste 0 -- -- 28
2019-07-31 13:00:00 28.5 12 Nordeste 22 Nordeste 0 -- -- 31
2019-07-31 12:00:00 27 10 Nordeste 23 Nordeste 0 -- -- 31
2019-07-31 11:00:00 25.6 9 Nordeste 15 Nordeste 0 -- -- 31
2019-07-31 10:00:00 24.5 6 Este 14 Este 0 -- -- 32
2019-07-31 09:00:00 21.8 5 Norte 22 Norte 0 -- -- 37
2019-07-31 08:00:00 18.7 3 Nordeste 18 Norte 0 -- -- 41
2019-07-31 07:00:00 19.2 6 Norte 23 Norte 0 -- -- 39
2019-07-31 06:00:00 19.2 8 Norte 29 Norte 0 -- -- 41
2019-07-31 05:00:00 19.5 17 Norte 37 Norte 0 -- -- 43
2019-07-31 04:00:00 20.1 21 Norte 49 Noroeste 0 -- -- 41
2019-07-31 03:00:00 20.4 24 Norte 51 Noroeste 0 -- -- 40
2019-07-31 02:00:00 20.7 21 Norte 48 Norte 0 -- -- 36
2019-07-31 01:00:00 21.9 23 Norte 50 Norte 0 -- -- 29
2019-07-31 00:00:00 23.1 19 Norte 42 Norte 0 -- -- 27
2019-07-30 23:00:00 23.9 17 Norte 35 Norte 0 -- -- 26
2019-07-30 22:00:00 25.3 15 Norte 28 Norte 0 -- -- 23
2019-07-30 21:00:00 26.9 15 Norte 34 Norte 0 -- -- 22
2019-07-30 20:00:00 28.3 17 Nordeste 39 Norte 0 -- -- 21
2019-07-30 19:00:00 28.6 17 Norte 38 Nordeste 0 -- -- 20
2019-07-30 18:00:00 28.8 22 Nordeste 37 Norte 0 -- -- 20
2019-07-30 17:00:00 28.7 22 Nordeste 35 Nordeste 0 -- -- 20
2019-07-30 16:00:00 28.3 19 Norte 42 Nordeste 0 -- -- 21
2019-07-30 15:00:00 27.1 23 Nordeste 40 Norte 0 -- -- 24
2019-07-30 14:00:00 25.7 15 Nordeste 36 Norte 0 -- -- 29
2019-07-30 13:00:00 24 17 Nordeste 37 Nordeste 0 -- -- 33
2019-07-30 12:00:00 21.8 21 Nordeste 45 Nordeste 0 -- -- 40
2019-07-30 11:00:00 19.2 18 Norte 53 Este 0 -- -- 49
2019-07-30 10:00:00 17.4 14 Nordeste 39 Este 0 -- -- 53
2019-07-30 09:00:00 15.9 12 Nordeste 45 Nordeste 0 -- -- 58
2019-07-30 08:00:00 14.6 19 Norte 62 Norte 0 -- -- 62
2019-07-30 07:00:00 14.9 20 Norte 57 Norte 0 -- -- 58
2019-07-30 06:00:00 15 21 Norte 54 Norte 0 -- -- 60
2019-07-30 05:00:00 15.4 21 Norte 62 Norte 0 -- -- 58
2019-07-30 04:00:00 15.9 24 Nordeste 64 Norte 0 -- -- 59
2019-07-30 03:00:00 16.5 22 Norte 54 Norte 0 -- -- 57
2019-07-30 02:00:00 16.5 24 Norte 51 Norte 0 -- -- 60
2019-07-30 01:00:00 17.3 23 Norte 49 Norte 0 -- -- 56
2019-07-30 00:00:00 18.2 13 Norte 33 Noroeste 0 -- -- 52
2019-07-29 23:00:00 19.7 8 Norte 25 Norte 0 -- -- 46
2019-07-29 22:00:00 21.2 8 Noroeste 28 Noroeste 0 -- -- 42
2019-07-29 21:00:00 23.3 10 Noroeste 34 Noroeste 0 -- -- 37
2019-07-29 20:00:00 25.5 13 Noroeste 31 Noroeste 0 -- -- 31
2019-07-29 19:00:00 26.8 19 Noroeste 35 Noroeste 0 -- -- 26
2019-07-29 18:00:00 27.4 17 Noroeste 33 Noroeste 0 -- -- 26
2019-07-29 17:00:00 27.4 19 Noroeste 33 Norte 0 -- -- 25
2019-07-29 16:00:00 27.4 13 Noroeste 31 Norte 0 -- -- 28
2019-07-29 15:00:00 26.7 14 Norte 31 Norte 0 -- -- 30
2019-07-29 14:00:00 26.1 9 Norte 30 Norte 0 -- -- 42
2019-07-29 13:00:00 24.6 15 Norte 30 Norte 0 -- -- 48
2019-07-29 12:00:00 24 17 Norte 33 Norte 0 -- -- 51
2019-07-29 11:00:00 22.9 17 Norte 32 Norte 0 -- -- 54
2019-07-29 10:00:00 22.4 13 Norte 27 Norte 0 -- -- 57
2019-07-29 09:00:00 21.4 10 Nordeste 18 Nordeste 0 -- -- 57
2019-07-29 08:00:00 18.4 4 Nordeste 30 Nordeste 0 -- -- 62
2019-07-29 07:00:00 18 17 Nordeste 33 Nordeste 0 -- -- 56
2019-07-29 06:00:00 18.9 17 Nordeste 42 Nordeste 0 -- -- 43
2019-07-29 05:00:00 18.7 10 Norte 27 Nordeste 0 -- -- 44
2019-07-29 04:00:00 18.2 5 Este 16 Nordeste 0 -- -- 55
2019-07-29 03:00:00 18.8 5 Sudoeste 9 Oeste 0 -- -- 56
2019-07-29 02:00:00 19.6 3 Sudeste 13 Norte 0 -- -- 55
2019-07-29 01:00:00 21.7 3 Nordeste 12 Norte 0 -- -- 49
2019-07-29 00:00:00 22.8 5 Noroeste 10 Norte 0 -- -- 46
2019-07-28 23:00:00 24.6 2 Norte 18 Noroeste 0 -- -- 39
2019-07-28 22:00:00 27 9 Noroeste 22 Oeste 0 -- -- 35
2019-07-28 21:00:00 29.2 13 Oeste 28 Sudoeste 0 -- -- 33
2019-07-28 20:00:00 31 9 Sudoeste 25 Sudoeste 0 -- -- 26
2019-07-28 19:00:00 31.1 13 Sudoeste 28 Sudoeste 0 -- -- 24
2019-07-28 18:00:00 31.4 10 Sur 22 Sudeste 0 -- -- 23
2019-07-28 17:00:00 30.8 14 Sudoeste 30 Este 0 -- -- 26
2019-07-28 16:00:00 30.4 13 Sur 23 Sudoeste 0 -- -- 29
2019-07-28 15:00:00 29.2 9 Sudeste 22 Sudeste 0 -- -- 32
2019-07-28 14:00:00 28.4 11 Sur 24 Sudeste 0 -- -- 34
2019-07-28 13:00:00 27.8 7 Sudeste 21 Sudoeste 0 -- -- 37
2019-07-28 12:00:00 26.2 9 Sudoeste 19 Sudeste 0 -- -- 42
2019-07-28 11:00:00 25.2 4 Sudeste 11 Sudeste 0 -- -- 45
2019-07-28 10:00:00 23.5 4 Sudeste 8 Sudeste 0 -- -- 49
2019-07-28 09:00:00 20.3 2 Este 8 Norte 0 -- -- 59
2019-07-28 08:00:00 16.9 0 Calma 7 Sudoeste 0 -- -- 69
2019-07-28 07:00:00 18.2 3 Sur 23 Nordeste 0 -- -- 64
2019-07-28 06:00:00 18.4 6 Norte 21 Norte 0 -- -- 65
2019-07-28 05:00:00 19.1 8 Norte 31 Norte 0 -- -- 63
2019-07-28 04:00:00 19.4 18 Norte 46 Norte 0 -- -- 64
2019-07-28 03:00:00 19.5 20 Norte 44 Norte 0 -- -- 66
2019-07-28 02:00:00 19.7 22 Norte 43 Norte 0 -- -- 69
2019-07-28 01:00:00 20.5 22 Norte 41 Noroeste 0 -- -- 66
2019-07-28 00:00:00 20.9 20 Norte 40 Norte 0 -- -- 63
2019-07-27 23:00:00 21.6 21 Norte 37 Norte 0 -- -- 60
2019-07-26 12:00:00 -- -- -- -- -- -- -- -- --
2019-07-26 11:00:00 21.6 12 Nordeste 39 Nordeste 0 -- -- 46
2019-07-26 10:00:00 20.3 12 Nordeste 33 Nordeste 0 -- -- 49
2019-07-26 09:00:00 18.1 13 Este 40 Norte 0 -- -- 59
2019-07-26 08:00:00 16.3 20 Nordeste 46 Norte 0 -- -- 67
2019-07-26 07:00:00 16.4 22 Norte 44 Nordeste 0 -- -- 64
2019-07-26 06:00:00 17.1 20 Norte 48 Norte 0 -- -- 64
2019-07-26 05:00:00 17.9 24 Norte 44 Noroeste 0 -- -- 67
2019-07-26 04:00:00 18.5 21 Norte 44 Norte 0 -- -- 70
2019-07-26 03:00:00 18.9 21 Norte 42 Nordeste 0 -- -- 72
2019-07-26 02:00:00 19.8 19 Norte 36 Norte 0 -- -- 74
2019-07-26 01:00:00 21.4 17 Norte 28 Norte 0 -- -- 70
2019-07-26 00:00:00 23.1 5 Sudoeste 9 Noroeste 0 -- -- 60
2019-07-25 23:00:00 24 5 Noroeste 15 Oeste 0 -- -- 57
2019-07-25 22:00:00 25.2 10 Oeste 17 Oeste 0 -- -- 54
2019-07-25 21:00:00 26.3 11 Oeste 29 Oeste 0 -- -- 50
2019-07-25 20:00:00 28.3 17 Oeste 32 Oeste 0 -- -- 41
2019-07-25 19:00:00 30.2 12 Sudoeste 28 Sudoeste 0 -- -- 33
2019-07-25 18:00:00 31.8 17 Sudoeste 33 Oeste 0 -- -- 32
2019-07-25 17:00:00 31.5 16 Sudoeste 34 Sudoeste 0 -- -- 34
2019-07-25 16:00:00 31.5 18 Sur 32 Sudoeste 0 -- -- 32
2019-07-25 15:00:00 31.4 17 Sudoeste 34 Sur 0 -- -- 28
2019-07-25 14:00:00 29.7 18 Sudoeste 27 Sudoeste 0 -- -- 31
2019-07-25 13:00:00 29.2 10 Sudoeste 23 Sudoeste 0 -- -- 38
2019-07-25 12:00:00 27.5 12 Sudoeste 21 Sur 0 -- -- 42
2019-07-25 11:00:00 26.8 5 Sur 8 Sudoeste 0 -- -- 37
2019-07-25 10:00:00 24 0 Calma 5 Sudoeste 0 -- -- 42
2019-07-25 09:00:00 21.2 2 Sudeste 4 Este 0 -- -- 50
2019-07-25 08:00:00 17.1 4 Norte 6 Nordeste 0 -- -- 58
2019-07-25 07:00:00 18.4 3 Noroeste 9 Norte 0 -- -- 51
2019-07-25 06:00:00 18.3 4 Noroeste 8 Norte 0 -- -- 53
2019-07-25 05:00:00 19.1 3 Sudoeste 11 Norte 0 -- -- 53
2019-07-25 04:00:00 21.4 2 Noroeste 8 Norte 0 -- -- 44
2019-07-25 03:00:00 22.9 9 Norte 12 Norte 0 -- -- 42
2019-07-25 02:00:00 22.9 5 Norte 10 Norte 0 -- -- 46
2019-07-25 01:00:00 23.9 5 Norte 9 Noroeste 0 -- -- 42
2019-07-25 00:00:00 25.8 4 Nordeste 13 Oeste 0 -- -- 40
2019-07-24 23:00:00 28.2 5 Noroeste 17 Oeste 0 -- -- 35
2019-07-24 22:00:00 30.1 8 Noroeste 30 Noroeste 0 -- -- 33
2019-07-24 21:00:00 33.2 16 Sudoeste 27 Oeste 0 -- -- 25
2019-07-24 20:00:00 34.8 14 Sudoeste 30 Sudoeste 0 -- -- 23
2019-07-24 19:00:00 35.5 14 Sudoeste 27 Oeste 0 -- -- 23
2019-07-24 18:00:00 35.8 16 Sudoeste 33 Sudoeste 0 -- -- 22
2019-07-24 17:00:00 35.7 14 Sudoeste 33 Oeste 0 -- -- 24
2019-07-24 16:00:00 35.4 17 Sur 32 Sur 0 -- -- 25
2019-07-24 15:00:00 35.1 17 Sur 32 Sur 0 -- -- 26
2019-07-24 14:00:00 34.1 7 Sur 23 Sur 0 -- -- 28
2019-07-24 13:00:00 32.6 9 Sur 22 Sudeste 0 -- -- 30
2019-07-24 12:00:00 31.5 10 Sur 19 Sudeste 0 -- -- 35
2019-07-24 11:00:00 29.8 4 Sur 11 Sur 0 -- -- 40
2019-07-24 10:00:00 27.4 3 Sur 5 Sudeste 0 -- -- 46
2019-07-24 09:00:00 24.1 0 Calma 6 Noroeste 0 -- -- 56
2019-07-24 08:00:00 19.9 4 Nordeste 10 Norte 0 -- -- 66
2019-07-24 07:00:00 21.4 7 Norte 10 Norte 0 -- -- 58
2019-07-24 06:00:00 21.8 3 Nordeste 12 Norte 0 -- -- 58
2019-07-24 05:00:00 23.8 5 Norte 9 Norte 0 -- -- 51
2019-07-24 04:00:00 25.9 7 Nordeste 14 Nordeste 0 -- -- 46
2019-07-24 03:00:00 25.3 5 Nordeste 12 Nordeste 0 -- -- 53
2019-07-24 02:00:00 26.5 4 Norte 24 Nordeste 0 -- -- 49
2019-07-24 01:00:00 26.8 14 Nordeste 32 Nordeste 0 -- -- 47
2019-07-24 00:00:00 26.7 13 Norte 36 Norte 0 -- -- 48
2019-07-23 23:00:00 28.3 11 Norte 26 Norte 0 -- -- 47
2019-07-23 22:00:00 29.4 8 Norte 27 Norte 0 -- -- 44
2019-07-23 21:00:00 32.9 15 Oeste 25 Oeste 0 -- -- 36
2019-07-23 20:00:00 34.8 15 Sudoeste 25 Sudoeste 0 -- -- 29
2019-07-23 19:00:00 34.8 12 Sur 22 Sudoeste 0 -- -- 28
2019-07-23 18:00:00 35.2 14 Sur 24 Sudoeste 0 -- -- 28
2019-07-23 17:00:00 34.9 7 Sur 27 Sudeste 0 -- -- 31
2019-07-23 16:00:00 34.3 11 Este 22 Este 0 -- -- 32
2019-07-23 15:00:00 32.5 12 Sudeste 27 Sudeste 0 -- -- 34
2019-07-23 14:00:00 32.5 14 Sudeste 27 Sudeste 0 -- -- 36
2019-07-23 13:00:00 31.3 14 Sudeste 30 Este 0 -- -- 36
2019-07-23 12:00:00 30 14 Sudeste 25 Sudeste 0 -- -- 38
2019-07-23 11:00:00 28.4 16 Este 26 Este 0 -- -- 44
2019-07-23 10:00:00 24.8 0 Calma 9 Sudoeste 0 -- -- 61
2019-07-23 09:00:00 22.8 6 Oeste 9 Oeste 0 -- -- 63
2019-07-23 08:00:00 22.3 5 Norte 10 Norte 0 -- -- 65
2019-07-23 07:00:00 22.1 8 Norte 14 Nordeste 0 -- -- 63
2019-07-23 06:00:00 22.1 9 Norte 20 Nordeste 0.4 -- -- 71
2019-07-23 05:00:00 21.5 8 Nordeste 15 Noroeste 0 -- -- 86
2019-07-23 04:00:00 21.4 10 Norte 19 Norte 4.8 -- -- 85
2019-07-23 03:00:00 26.3 3 Noroeste 29 Norte 0.2 -- -- 53
2019-07-23 02:00:00 27.6 8 Noroeste 32 Nordeste 0.2 -- -- 48
2019-07-23 01:00:00 30 11 Este 35 Nordeste 0 -- -- 40
2019-07-23 00:00:00 30.6 9 Nordeste 33 Norte 0 -- -- 39
2019-07-22 23:00:00 31.9 18 Norte 38 Norte 0 -- -- 36
2019-07-22 22:00:00 33 4 Oeste 12 Sudoeste 0 -- -- 30
2019-07-22 21:00:00 36.6 4 Este 19 Este 0 -- -- 23
2019-07-22 20:00:00 37.5 6 Sudeste 21 Este 0 -- -- 22
2019-07-22 19:00:00 37.6 8 Sudeste 21 Sudeste 0 -- -- 20
2019-07-22 18:00:00 38.1 12 Sudeste 25 Sur 0 -- -- 19
2019-07-22 17:00:00 38.3 16 Sur 25 Sur 0 -- -- 20
2019-07-22 16:00:00 38.1 12 Sudeste 22 Sudeste 0 -- -- 20
2019-07-22 15:00:00 36.9 12 Sudeste 27 Sudeste 0 -- -- 22
2019-07-22 14:00:00 35.8 11 Este 22 Este 0 -- -- 23
2019-07-22 13:00:00 34.3 6 Sudeste 21 Sudeste 0 -- -- 25
2019-07-22 12:00:00 32.8 14 Sudeste 24 Sudeste 0 -- -- 27
2019-07-22 11:00:00 31.1 15 Sur 27 Sur 0 -- -- 29
2019-07-22 10:00:00 29.8 9 Sur 14 Sur 0 -- -- 33
2019-07-22 09:00:00 27.5 8 Oeste 13 Oeste 0 -- -- 39
2019-07-22 08:00:00 25.9 3 Oeste 12 Este 0 -- -- 41
2019-07-22 07:00:00 26.2 4 Sur 12 Norte 0 -- -- 39
2019-07-22 06:00:00 23.2 8 Norte 10 Norte 0 -- -- 43
2019-07-22 05:00:00 24.1 3 Norte 10 Norte 0 -- -- 42
2019-07-22 04:00:00 25.9 7 Norte 10 Oeste 0 -- -- 39
2019-07-22 03:00:00 28.8 2 Este 28 Nordeste 0 -- -- 36
2019-07-22 02:00:00 29.9 10 Nordeste 36 Nordeste 0 -- -- 34
2019-07-22 01:00:00 29.4 8 Norte 18 Norte 0 -- -- 39
2019-07-22 00:00:00 29.2 13 Norte 26 Norte 0 -- -- 42
2019-07-21 23:00:00 29 9 Noroeste 18 Norte 0 -- -- 38
2019-07-21 22:00:00 29.6 7 Norte 14 Norte 0 -- -- 22
2019-07-21 21:00:00 35.5 4 Oeste 10 Sudoeste 0 -- -- 14
2019-07-21 20:00:00 37.2 4 Sudeste 17 Sur 0 -- -- 11
2019-07-21 19:00:00 37.4 10 Oeste 27 Sudoeste 0 -- -- 11
2019-07-21 18:00:00 37.5 11 Sudoeste 25 Oeste 0 -- -- 12
2019-07-21 17:00:00 38 11 Sur 23 Sur 0 -- -- 15
2019-07-21 16:00:00 36.8 9 Sur 22 Sudeste 0 -- -- 21
2019-07-21 15:00:00 35.7 12 Sur 18 Sur 0 -- -- 22
2019-07-21 14:00:00 34.3 9 Sudoeste 21 Sudoeste 0 -- -- 23
2019-07-21 13:00:00 33.8 8 Sur 17 Sudeste 0 -- -- 28
2019-07-21 12:00:00 31.4 4 Sudoeste 13 Sudoeste 0 -- -- 36
2019-07-21 11:00:00 30.4 5 Sur 14 Este 0 -- -- 38
2019-07-21 10:00:00 27.9 5 Sur 10 Sudoeste 0 -- -- 43
2019-07-21 09:00:00 25.4 5 Sudoeste 9 Sudoeste 0 -- -- 49
2019-07-21 08:00:00 23.5 6 Oeste 10 Nordeste 0 -- -- 52
2019-07-21 07:00:00 23.8 6 Oeste 27 Norte 0 -- -- 51
2019-07-21 06:00:00 23.6 4 Noroeste 12 Norte 0 -- -- 52
2019-07-21 05:00:00 23.9 2 Sudeste 33 Nordeste 0 -- -- 48
2019-07-21 04:00:00 24.7 8 Norte 28 Nordeste 0 -- -- 46
2019-07-21 03:00:00 24.6 6 Norte 25 Este 0 -- -- 53
2019-07-21 02:00:00 24.7 13 Norte 27 Norte 0 -- -- 55
2019-07-21 01:00:00 25 9 Norte 39 Norte 0 -- -- 56
2019-07-21 00:00:00 26 14 Norte 42 Norte 0 -- -- 54